createdAt,value
2022-08-26T00:04:45.961Z,21.08
2022-08-26T00:06:08.363Z,21.25
2022-08-26T00:07:13.444Z,21.14
2022-08-26T00:08:28.165Z,21.13
2022-08-26T00:09:55.379Z,21.08
2022-08-26T00:12:19.433Z,21.13
2022-08-26T00:12:37.885Z,21.19
2022-08-26T00:14:28.310Z,21.18
2022-08-26T00:16:17.196Z,21.06
2022-08-26T00:17:33.051Z,21.12
2022-08-26T00:18:47.400Z,21.10
2022-08-26T00:20:19.780Z,21.05
2022-08-26T00:22:20.164Z,21.09
2022-08-26T00:23:35.785Z,21.09
2022-08-26T00:24:53.951Z,20.99
2022-08-26T00:26:49.423Z,21.09
2022-08-26T00:29:42.662Z,21.09
2022-08-26T00:30:37.195Z,21.12
2022-08-26T00:31:53.463Z,21.06
2022-08-26T00:33:15.281Z,21.04
2022-08-26T00:34:33.983Z,21.05
2022-08-26T00:35:48.656Z,21.03
2022-08-26T00:38:57.111Z,20.92
2022-08-26T00:39:42.978Z,20.96
2022-08-26T00:40:56.031Z,21.01
2022-08-26T00:41:53.530Z,20.94
2022-08-26T00:42:35.955Z,20.94
2022-08-26T00:43:58.511Z,20.83
2022-08-26T00:45:16.675Z,20.99
2022-08-26T00:46:56.874Z,21.06
2022-08-26T00:48:08.529Z,21.03
2022-08-26T00:49:22.001Z,21.03
2022-08-26T00:50:38.693Z,21.01
2022-08-26T00:51:29.762Z,21.00
2022-08-26T00:52:20.747Z,20.95
2022-08-26T00:53:00.575Z,20.93
2022-08-26T01:31:12.208Z,20.56
2022-08-26T01:41:03.534Z,20.53
2022-08-26T01:53:14.175Z,20.42
2022-08-26T01:55:32.470Z,20.37
2022-08-26T01:57:25.853Z,20.31
2022-08-26T01:57:59.979Z,20.28
2022-08-26T01:58:53.920Z,20.38
2022-08-26T01:59:26.094Z,20.36
2022-08-26T02:00:01.457Z,20.29
2022-08-26T02:00:34.967Z,20.27
2022-08-26T02:01:09.624Z,20.21
2022-08-26T02:01:43.639Z,20.21
2022-08-26T02:02:15.792Z,20.17
2022-08-26T02:02:50.264Z,20.17
2022-08-26T02:03:22.563Z,20.20
2022-08-26T02:04:10.892Z,20.28
2022-08-26T02:04:51.778Z,20.34
2022-08-26T02:05:23.648Z,20.35
2022-08-26T02:05:59.776Z,20.35
2022-08-26T02:06:32.010Z,20.33
2022-08-26T02:07:07.999Z,20.30
2022-08-26T02:07:41.065Z,20.25
2022-08-26T02:08:15.318Z,20.21
2022-08-26T02:09:00.204Z,20.20
2022-08-26T02:09:32.623Z,20.17
2022-08-26T02:10:14.575Z,20.17
2022-08-26T02:10:46.385Z,20.17
2022-08-26T02:11:18.608Z,20.17
2022-08-26T02:11:52.397Z,20.14
2022-08-26T02:12:26.194Z,20.16
2022-08-26T02:12:58.225Z,20.18
2022-08-26T02:13:33.087Z,20.22
2022-08-26T02:14:18.638Z,20.28
2022-08-26T02:14:54.150Z,20.22
2022-08-26T02:15:26.679Z,20.26
2022-08-26T02:16:03.052Z,20.21
2022-08-26T02:16:40.427Z,20.28
2022-08-26T02:17:15.920Z,20.25
2022-08-26T02:17:48.350Z,20.28
2022-08-26T02:18:28.094Z,20.28
2022-08-26T02:19:02.479Z,20.25
2022-08-26T02:19:39.239Z,20.25
2022-08-26T02:20:15.711Z,20.27
2022-08-26T02:20:47.804Z,20.20
2022-08-26T02:21:24.943Z,20.24
2022-08-26T02:22:06.516Z,20.21
2022-08-26T02:22:39.048Z,20.16
2022-08-26T02:23:12.269Z,20.21
2022-08-26T02:23:44.802Z,20.16
2022-08-26T02:24:22.514Z,20.15
2022-08-26T02:25:27.064Z,20.12
2022-08-26T02:26:12.803Z,20.13
2022-08-26T02:26:49.836Z,20.15
2022-08-26T02:27:32.221Z,20.19
2022-08-26T02:28:04.511Z,20.15
2022-08-26T02:28:46.638Z,20.15
2022-08-26T02:29:33.059Z,20.12
2022-08-26T02:30:17.109Z,20.05
2022-08-26T02:30:49.136Z,20.03
2022-08-26T02:31:22.948Z,20.01
2022-08-26T02:31:57.895Z,20.01
2022-08-26T02:32:29.812Z,20.05
2022-08-26T02:33:06.950Z,20.10
2022-08-26T02:33:43.090Z,20.13
2022-08-26T02:34:20.516Z,20.12
2022-08-26T02:34:52.353Z,20.09
2022-08-26T02:35:24.883Z,20.05
2022-08-26T02:35:58.234Z,20.08
2022-08-26T02:36:30.010Z,20.09
2022-08-26T02:37:07.686Z,20.07
2022-08-26T02:37:41.871Z,19.98
2022-08-26T02:38:14.527Z,19.96
2022-08-26T02:38:46.464Z,19.95
2022-08-26T02:39:21.963Z,19.90
2022-08-26T02:39:54.574Z,19.86
2022-08-26T02:40:31.043Z,19.89
2022-08-26T02:41:02.942Z,19.91
2022-08-26T02:41:35.303Z,19.86
2022-08-26T02:42:16.592Z,19.81
2022-08-26T02:42:49.607Z,19.85
2022-08-26T02:43:32.654Z,19.84
2022-08-26T02:44:07.236Z,19.79
2022-08-26T02:44:39.922Z,19.72
2022-08-26T02:45:11.933Z,19.69
2022-08-26T02:45:43.723Z,19.75
2022-08-26T02:46:27.724Z,19.80
2022-08-26T02:47:00.317Z,19.88
2022-08-26T02:47:33.424Z,19.87
2022-08-26T02:48:12.190Z,19.89
2022-08-26T02:48:44.452Z,19.86
2022-08-26T02:49:17.014Z,19.90
2022-08-26T02:49:49.028Z,19.92
2022-08-26T02:50:21.315Z,19.95
2022-08-26T02:50:53.184Z,19.96
2022-08-26T02:51:25.474Z,19.99
2022-08-26T02:51:57.623Z,19.89
2022-08-26T02:52:29.519Z,19.92
2022-08-26T02:53:01.721Z,19.88
2022-08-26T02:53:35.549Z,19.89
2022-08-26T02:54:07.739Z,19.96
2022-08-26T02:54:39.458Z,19.89
2022-08-26T02:55:11.440Z,19.95
2022-08-26T02:55:43.213Z,19.97
2022-08-26T02:56:15.243Z,19.91
2022-08-26T02:56:48.160Z,20.02
2022-08-26T02:57:20.608Z,20.00
2022-08-26T02:57:54.083Z,20.05
2022-08-26T02:58:25.923Z,20.08
2022-08-26T02:58:58.582Z,20.09
2022-08-26T02:59:31.389Z,20.11
2022-08-26T03:00:07.994Z,20.12
2022-08-26T03:00:52.999Z,20.06
2022-08-26T03:01:29.934Z,19.97
2022-08-26T03:02:03.214Z,19.95
2022-08-26T03:02:35.393Z,19.96
2022-08-26T03:03:08.287Z,19.99
2022-08-26T03:03:42.031Z,20.05
2022-08-26T03:04:13.940Z,20.07
2022-08-26T03:04:57.779Z,20.12
2022-08-26T03:05:35.810Z,20.16
2022-08-26T03:06:09.240Z,20.11
2022-08-26T03:06:41.980Z,20.09
2022-08-26T03:07:14.013Z,20.10
2022-08-26T03:07:46.424Z,20.08
2022-08-26T03:08:18.492Z,20.12
2022-08-26T03:08:51.052Z,20.11
2022-08-26T03:09:24.369Z,20.07
2022-08-26T03:09:57.293Z,20.09
2022-08-26T03:10:32.169Z,20.04
2022-08-26T03:11:05.115Z,20.02
2022-08-26T03:11:39.973Z,20.07
2022-08-26T03:12:12.150Z,20.04
2022-08-26T03:12:47.467Z,19.99
2022-08-26T03:13:20.079Z,19.96
2022-08-26T03:13:52.569Z,19.98
2022-08-26T03:14:25.273Z,19.92
2022-08-26T03:14:57.502Z,19.89
2022-08-26T03:15:30.163Z,19.82
2022-08-26T03:16:03.955Z,19.76
2022-08-26T03:16:37.398Z,19.74
2022-08-26T03:17:09.635Z,19.75
2022-08-26T03:17:42.797Z,19.87
2022-08-26T03:18:16.050Z,19.96
2022-08-26T03:18:52.395Z,20.00
2022-08-26T03:19:25.263Z,20.03
2022-08-26T03:19:58.209Z,19.94
2022-08-26T03:20:30.096Z,19.86
2022-08-26T03:21:10.947Z,19.79
2022-08-26T03:21:43.525Z,19.79
2022-08-26T03:22:15.545Z,19.84
2022-08-26T03:22:48.827Z,19.89
2022-08-26T03:23:20.770Z,19.90
2022-08-26T03:23:52.557Z,19.95
2022-08-26T03:24:25.475Z,19.96
2022-08-26T03:24:57.480Z,19.97
2022-08-26T03:25:29.308Z,19.95
2022-08-26T03:26:02.148Z,19.93
2022-08-26T03:26:35.317Z,19.96
2022-08-26T03:27:08.617Z,19.91
2022-08-26T03:27:40.479Z,19.87
2022-08-26T03:28:14.962Z,19.93
2022-08-26T03:29:09.782Z,20.01
2022-08-26T03:30:00.678Z,19.97
2022-08-26T03:30:44.980Z,20.00
2022-08-26T03:31:17.678Z,20.01
2022-08-26T03:31:49.693Z,19.98
2022-08-26T03:32:21.459Z,20.03
2022-08-26T03:32:53.341Z,20.05
2022-08-26T03:33:25.920Z,20.00
2022-08-26T03:34:00.424Z,19.96
2022-08-26T03:34:32.201Z,19.97
2022-08-26T03:35:04.727Z,19.97
2022-08-26T03:35:39.374Z,20.01
2022-08-26T03:36:11.610Z,20.04
2022-08-26T03:36:43.657Z,20.04
2022-08-26T03:37:15.552Z,20.01
2022-08-26T03:37:47.424Z,20.04
2022-08-26T03:38:25.281Z,19.91
2022-08-26T03:38:58.957Z,19.88
2022-08-26T03:39:31.522Z,19.90
2022-08-26T03:40:05.239Z,19.97
2022-08-26T03:40:38.704Z,20.00
2022-08-26T03:41:12.272Z,19.93
2022-08-26T03:41:45.182Z,19.93
2022-08-26T03:42:21.446Z,19.98
2022-08-26T03:42:54.764Z,19.90
2022-08-26T03:43:27.121Z,19.83
2022-08-26T03:44:01.750Z,19.87
2022-08-26T03:44:35.928Z,19.97
2022-08-26T03:45:14.096Z,19.92
2022-08-26T03:45:47.121Z,19.83
2022-08-26T03:46:20.608Z,19.80
2022-08-26T03:46:54.550Z,19.75
2022-08-26T03:47:29.119Z,19.79
2022-08-26T03:48:01.048Z,19.78
2022-08-26T03:48:34.929Z,19.84
2022-08-26T03:49:07.732Z,19.91
2022-08-26T03:49:39.571Z,19.82
2022-08-26T03:50:15.035Z,19.79
2022-08-26T03:50:46.909Z,19.79
2022-08-26T03:51:20.833Z,19.73
2022-08-26T03:51:53.459Z,19.77
2022-08-26T03:52:26.598Z,19.82
2022-08-26T03:52:59.013Z,19.83
2022-08-26T03:53:31.788Z,19.83
2022-08-26T03:54:04.834Z,19.68
2022-08-26T03:54:41.448Z,19.71
2022-08-26T03:55:16.925Z,19.81
2022-08-26T03:55:51.816Z,19.84
2022-08-26T03:56:24.020Z,19.88
2022-08-26T03:56:55.814Z,19.83
2022-08-26T03:57:28.962Z,19.77
2022-08-26T03:58:02.679Z,19.77
2022-08-26T03:58:34.860Z,19.77
2022-08-26T03:59:07.671Z,19.83
2022-08-26T03:59:41.350Z,19.84
2022-08-26T04:00:18.505Z,19.83
2022-08-26T04:00:55.437Z,19.77
2022-08-26T04:01:29.458Z,19.81
2022-08-26T04:02:02.972Z,19.78
2022-08-26T04:02:41.653Z,19.77
2022-08-26T04:03:33.489Z,19.84
2022-08-26T04:04:05.368Z,19.86
2022-08-26T04:04:38.512Z,19.82
2022-08-26T04:05:11.042Z,19.79
2022-08-26T04:05:43.770Z,19.76
2022-08-26T04:06:17.853Z,19.78
2022-08-26T04:06:50.172Z,19.78
2022-08-26T04:07:22.090Z,19.79
2022-08-26T04:07:54.715Z,19.78
2022-08-26T04:08:26.629Z,19.80
2022-08-26T04:09:02.386Z,19.81
2022-08-26T04:09:36.099Z,19.82
2022-08-26T04:10:09.160Z,19.78
2022-08-26T04:10:41.607Z,19.81
2022-08-26T04:11:18.842Z,19.82
2022-08-26T04:11:50.972Z,19.81
2022-08-26T04:12:23.545Z,19.81
2022-08-26T04:12:59.013Z,19.83
2022-08-26T04:13:38.046Z,19.77
2022-08-26T04:14:14.268Z,19.82
2022-08-26T04:14:49.470Z,19.84
2022-08-26T04:15:21.988Z,19.82
2022-08-26T04:15:54.974Z,19.83
2022-08-26T04:16:29.145Z,19.83
2022-08-26T04:17:01.019Z,19.82
2022-08-26T04:17:32.851Z,19.82
2022-08-26T04:18:04.806Z,19.72
2022-08-26T04:18:38.131Z,19.69
2022-08-26T04:19:19.835Z,19.73
2022-08-26T04:19:53.751Z,19.73
2022-08-26T04:20:26.696Z,19.68
2022-08-26T04:20:58.559Z,19.73
2022-08-26T04:21:30.577Z,19.76
2022-08-26T04:22:02.912Z,19.77
2022-08-26T04:22:34.817Z,19.72
2022-08-26T04:23:06.813Z,19.70
2022-08-26T04:23:47.747Z,19.63
2022-08-26T04:24:22.857Z,19.63
2022-08-26T04:24:58.569Z,19.58
2022-08-26T04:25:30.632Z,19.55
2022-08-26T04:26:02.622Z,19.60
2022-08-26T04:26:39.521Z,19.60
2022-08-26T04:27:15.053Z,19.62
2022-08-26T04:27:48.621Z,19.60
2022-08-26T04:28:22.885Z,19.59
2022-08-26T04:28:55.507Z,19.61
2022-08-26T04:29:27.507Z,19.65
2022-08-26T04:29:59.244Z,19.65
2022-08-26T04:30:31.101Z,19.63
2022-08-26T04:31:03.036Z,19.67
2022-08-26T04:31:36.183Z,19.62
2022-08-26T04:32:08.808Z,19.61
2022-08-26T04:32:41.120Z,19.59
2022-08-26T04:33:14.081Z,19.60
2022-08-26T04:33:49.685Z,19.60
2022-08-26T04:34:23.259Z,19.61
2022-08-26T04:34:55.005Z,19.65
2022-08-26T04:35:27.021Z,19.65
2022-08-26T04:36:03.263Z,19.65
2022-08-26T04:36:36.050Z,19.66
2022-08-26T04:37:08.266Z,19.71
2022-08-26T04:37:40.098Z,19.70
2022-08-26T04:38:16.155Z,19.70
2022-08-26T04:38:48.058Z,19.71
2022-08-26T04:39:20.674Z,19.69
2022-08-26T04:39:53.520Z,19.74
2022-08-26T04:40:27.593Z,19.73
2022-08-26T04:40:59.511Z,19.75
2022-08-26T04:41:31.695Z,19.79
2022-08-26T04:42:03.721Z,19.77
2022-08-26T04:42:36.159Z,19.80
2022-08-26T04:43:08.063Z,19.79
2022-08-26T04:43:42.018Z,19.78
2022-08-26T04:44:14.953Z,19.79
2022-08-26T04:44:46.771Z,19.78
2022-08-26T04:45:18.597Z,19.81
2022-08-26T04:45:55.245Z,19.81
2022-08-26T04:46:28.761Z,19.81
2022-08-26T04:47:00.553Z,19.78
2022-08-26T04:47:32.618Z,19.81
2022-08-26T04:48:04.881Z,19.81
2022-08-26T04:48:37.266Z,19.86
2022-08-26T04:49:09.534Z,19.91
2022-08-26T04:49:41.365Z,20.00
2022-08-26T04:50:13.241Z,20.00
2022-08-26T04:50:49.633Z,20.02
2022-08-26T04:51:27.423Z,19.90
2022-08-26T04:52:00.102Z,19.85
2022-08-26T04:52:31.835Z,19.91
2022-08-26T04:53:04.422Z,19.95
2022-08-26T04:53:38.868Z,19.97
2022-08-26T04:54:10.847Z,19.98
2022-08-26T04:54:43.241Z,19.95
2022-08-26T04:55:15.870Z,20.03
2022-08-26T04:55:48.389Z,20.08
2022-08-26T04:56:20.573Z,20.08
2022-08-26T04:56:52.771Z,20.08
2022-08-26T04:57:24.561Z,20.16
2022-08-26T04:57:56.818Z,20.23
2022-08-26T04:58:28.677Z,20.26
2022-08-26T04:59:01.384Z,20.24
2022-08-26T04:59:38.989Z,20.21
2022-08-26T05:00:13.000Z,20.24
2022-08-26T05:00:46.668Z,20.17
2022-08-26T05:01:19.314Z,20.12
2022-08-26T05:01:53.269Z,20.16
2022-08-26T05:02:25.100Z,20.17
2022-08-26T05:02:56.920Z,20.21
2022-08-26T05:03:30.553Z,20.29
2022-08-26T05:04:04.104Z,20.28
2022-08-26T05:04:43.319Z,20.27
2022-08-26T05:05:15.079Z,20.30
2022-08-26T05:05:49.887Z,20.30
2022-08-26T05:06:22.014Z,20.32
2022-08-26T05:06:56.760Z,20.32
2022-08-26T05:07:31.548Z,20.33
2022-08-26T05:08:03.938Z,20.34
2022-08-26T05:08:36.512Z,20.35
2022-08-26T05:09:08.247Z,20.39
2022-08-26T05:09:40.666Z,20.22
2022-08-26T05:10:12.637Z,20.31
2022-08-26T05:10:52.459Z,20.45
2022-08-26T05:11:24.211Z,20.50
2022-08-26T05:11:56.027Z,20.50
2022-08-26T05:12:31.432Z,20.43
2022-08-26T05:13:03.743Z,20.39
2022-08-26T05:13:42.584Z,20.41
2022-08-26T05:14:15.245Z,20.35
2022-08-26T05:14:46.982Z,20.28
2022-08-26T05:15:18.740Z,20.27
2022-08-26T05:15:51.001Z,20.21
2022-08-26T05:16:22.961Z,20.20
2022-08-26T05:16:55.662Z,20.24
2022-08-26T05:17:28.324Z,20.26
2022-08-26T05:18:00.458Z,20.35
2022-08-26T05:18:34.238Z,20.43
2022-08-26T05:19:08.589Z,20.36
2022-08-26T05:19:40.444Z,20.38
2022-08-26T05:20:14.842Z,20.49
2022-08-26T05:20:54.504Z,20.51
2022-08-26T05:21:28.999Z,20.39
2022-08-26T05:22:00.752Z,20.43
2022-08-26T05:22:32.639Z,20.44
2022-08-26T05:23:04.595Z,20.50
2022-08-26T05:23:36.453Z,20.64
2022-08-26T05:24:11.558Z,20.77
2022-08-26T05:24:43.398Z,20.66
2022-08-26T05:25:15.238Z,20.73
2022-08-26T05:25:48.544Z,20.75
2022-08-26T05:26:25.763Z,20.73
2022-08-26T05:26:58.218Z,20.73
2022-08-26T05:27:31.713Z,20.79
2022-08-26T05:28:04.667Z,20.77
2022-08-26T05:28:37.726Z,20.80
2022-08-26T05:29:09.768Z,20.82
2022-08-26T05:29:42.050Z,20.94
2022-08-26T05:30:14.101Z,21.04
2022-08-26T05:30:46.211Z,21.05
2022-08-26T05:31:24.650Z,21.11
2022-08-26T05:31:56.516Z,21.14
2022-08-26T05:32:28.450Z,21.29
2022-08-26T05:33:01.857Z,21.28
2022-08-26T05:33:34.528Z,21.29
2022-08-26T05:34:07.022Z,21.28
2022-08-26T05:34:40.319Z,21.14
2022-08-26T05:35:15.673Z,21.19
2022-08-26T05:35:47.939Z,21.11
2022-08-26T05:36:22.468Z,21.18
2022-08-26T05:36:54.236Z,21.11
2022-08-26T05:37:26.370Z,21.09
2022-08-26T05:37:59.179Z,21.04
2022-08-26T05:38:31.549Z,21.06
2022-08-26T05:39:05.623Z,21.25
2022-08-26T05:39:37.476Z,21.38
2022-08-26T05:40:13.348Z,21.42
2022-08-26T05:40:49.005Z,21.50
2022-08-26T05:41:34.324Z,21.60
2022-08-26T05:42:08.379Z,21.65
2022-08-26T05:42:41.647Z,21.88
2022-08-26T05:43:14.198Z,21.91
2022-08-26T05:43:46.236Z,21.86
2022-08-26T05:44:18.925Z,21.77
2022-08-26T05:44:56.038Z,21.70
2022-08-26T05:45:28.126Z,21.60
2022-08-26T05:46:07.042Z,21.35
2022-08-26T05:46:40.031Z,21.35
2022-08-26T05:47:11.947Z,21.49
2022-08-26T05:47:43.999Z,21.68
2022-08-26T05:48:17.782Z,21.97
2022-08-26T05:48:50.062Z,22.20
2022-08-26T05:49:26.248Z,22.17
2022-08-26T05:49:58.411Z,22.09
2022-08-26T05:50:30.240Z,21.93
2022-08-26T05:51:05.013Z,21.81
2022-08-26T05:51:36.969Z,21.82
2022-08-26T05:52:08.736Z,21.91
2022-08-26T05:52:42.692Z,21.90
2022-08-26T05:53:17.592Z,21.71
2022-08-26T05:53:54.947Z,21.69
2022-08-26T05:54:26.804Z,21.65
2022-08-26T05:54:58.566Z,21.76
2022-08-26T05:55:30.380Z,21.94
2022-08-26T05:56:03.677Z,22.08
2022-08-26T05:56:35.499Z,22.04
2022-08-26T05:57:07.706Z,21.88
2022-08-26T05:57:42.923Z,21.93
2022-08-26T05:58:15.029Z,21.84
2022-08-26T05:58:49.220Z,21.71
2022-08-26T05:59:24.485Z,21.92
2022-08-26T05:59:56.859Z,21.92
2022-08-26T06:00:29.463Z,21.99
2022-08-26T06:01:02.953Z,21.93
2022-08-26T06:01:35.922Z,21.69
2022-08-26T06:02:07.810Z,21.66
2022-08-26T06:02:40.099Z,21.72
2022-08-26T06:03:11.942Z,21.97
2022-08-26T06:03:46.558Z,22.02
2022-08-26T06:04:20.777Z,22.09
2022-08-26T06:04:52.598Z,22.08
2022-08-26T06:05:24.574Z,22.09
2022-08-26T06:05:56.786Z,22.00
2022-08-26T06:06:32.771Z,22.02
2022-08-26T06:07:05.296Z,22.11
2022-08-26T06:07:56.032Z,22.19
2022-08-26T06:08:27.924Z,22.22
2022-08-26T06:09:01.281Z,22.22
2022-08-26T06:09:36.963Z,22.37
2022-08-26T06:10:32.577Z,22.38
2022-08-26T06:11:08.733Z,22.35
2022-08-26T06:11:50.410Z,22.41
2022-08-26T06:12:22.441Z,22.31
2022-08-26T06:12:54.157Z,22.23
2022-08-26T06:13:30.223Z,22.31
2022-08-26T06:14:05.828Z,22.36
2022-08-26T06:14:37.682Z,22.17
2022-08-26T06:15:10.077Z,22.34
2022-08-26T06:15:45.503Z,22.40
2022-08-26T06:16:19.644Z,22.42
2022-08-26T06:16:52.319Z,22.49
2022-08-26T06:17:24.237Z,22.40
2022-08-26T06:17:56.781Z,22.44
2022-08-26T06:18:34.708Z,22.47
2022-08-26T06:19:10.475Z,22.10
2022-08-26T06:19:43.142Z,22.05
2022-08-26T06:20:15.555Z,21.85
2022-08-26T06:20:57.070Z,22.16
2022-08-26T06:21:32.677Z,22.39
2022-08-26T06:22:24.585Z,22.33
2022-08-26T06:23:16.416Z,22.34
2022-08-26T06:24:09.061Z,22.51
2022-08-26T06:24:59.873Z,22.41
2022-08-26T06:25:42.013Z,22.23
2022-08-26T06:26:17.126Z,22.19
2022-08-26T06:26:52.869Z,22.22
2022-08-26T06:27:25.313Z,22.13
2022-08-26T06:27:59.090Z,22.29
2022-08-26T06:28:31.507Z,22.24
2022-08-26T06:29:05.661Z,22.46
2022-08-26T06:29:37.707Z,22.56
2022-08-26T06:30:10.376Z,22.59
2022-08-26T06:30:42.655Z,22.48
2022-08-26T06:31:15.684Z,22.57
2022-08-26T06:31:48.204Z,22.69
2022-08-26T06:32:19.969Z,22.85
2022-08-26T06:32:51.819Z,22.87
2022-08-26T06:33:26.191Z,22.81
2022-08-26T06:33:58.494Z,22.76
2022-08-26T06:34:30.970Z,22.96
2022-08-26T06:35:02.978Z,23.11
2022-08-26T06:35:39.659Z,22.80
2022-08-26T06:36:23.520Z,22.55
2022-08-26T06:36:58.577Z,22.69
2022-08-26T06:37:30.430Z,22.48
2022-08-26T06:38:02.591Z,22.74
2022-08-26T06:38:35.345Z,22.74
2022-08-26T06:39:11.780Z,22.81
2022-08-26T06:39:43.564Z,22.80
2022-08-26T06:40:15.416Z,22.93
2022-08-26T06:40:52.179Z,22.92
2022-08-26T06:41:24.225Z,23.04
2022-08-26T06:41:56.895Z,23.18
2022-08-26T06:42:29.678Z,23.43
2022-08-26T06:43:03.589Z,23.54
2022-08-26T06:43:35.416Z,23.30
2022-08-26T06:44:07.887Z,23.31
2022-08-26T06:44:40.965Z,23.26
2022-08-26T06:45:12.926Z,23.56
2022-08-26T06:45:45.960Z,23.53
2022-08-26T06:46:21.647Z,23.28
2022-08-26T06:46:53.841Z,23.34
2022-08-26T06:47:25.639Z,23.45
2022-08-26T06:47:57.451Z,23.53
2022-08-26T06:48:29.303Z,23.52
2022-08-26T06:49:01.174Z,23.58
2022-08-26T06:49:32.896Z,23.33
2022-08-26T06:50:05.159Z,23.50
2022-08-26T06:50:36.967Z,23.67
2022-08-26T06:51:13.574Z,23.56
2022-08-26T06:51:45.344Z,23.56
2022-08-26T06:52:24.412Z,23.73
2022-08-26T06:52:56.450Z,23.80
2022-08-26T06:53:28.543Z,23.65
2022-08-26T06:54:02.055Z,23.65
2022-08-26T06:54:33.878Z,23.44
2022-08-26T06:55:06.279Z,23.54
2022-08-26T06:55:42.568Z,22.98
2022-08-26T06:56:17.539Z,23.07
2022-08-26T06:56:49.676Z,23.17
2022-08-26T06:57:22.285Z,23.52
2022-08-26T06:57:54.307Z,23.55
2022-08-26T06:58:26.093Z,23.43
2022-08-26T06:58:57.887Z,23.44
2022-08-26T06:59:31.217Z,23.48
2022-08-26T07:00:13.164Z,23.34
2022-08-26T07:00:47.413Z,23.27
2022-08-26T07:01:22.558Z,23.23
2022-08-26T07:01:55.117Z,23.40
2022-08-26T07:02:28.516Z,23.65
2022-08-26T07:03:00.556Z,23.44
2022-08-26T07:03:32.493Z,23.73
2022-08-26T07:04:15.680Z,23.77
2022-08-26T07:04:51.799Z,23.75
2022-08-26T07:05:28.675Z,24.15
2022-08-26T07:06:04.159Z,24.34
2022-08-26T07:06:40.355Z,24.56
2022-08-26T07:07:15.738Z,24.41
2022-08-26T07:07:48.179Z,24.42
2022-08-26T07:08:22.417Z,24.32
2022-08-26T07:09:01.703Z,24.54
2022-08-26T07:09:37.959Z,24.62
2022-08-26T07:10:10.587Z,24.54
2022-08-26T07:10:43.126Z,24.95
2022-08-26T07:11:16.155Z,25.10
2022-08-26T07:11:48.815Z,25.04
2022-08-26T07:12:21.154Z,24.98
2022-08-26T07:12:54.237Z,25.44
2022-08-26T07:13:30.567Z,25.92
2022-08-26T07:14:03.390Z,25.88
2022-08-26T07:14:38.337Z,26.34
2022-08-26T07:15:11.008Z,26.28
2022-08-26T07:15:43.016Z,26.68
2022-08-26T07:16:17.735Z,26.69
2022-08-26T07:16:50.663Z,26.93
2022-08-26T07:17:22.623Z,26.74
2022-08-26T07:17:56.916Z,27.03
2022-08-26T07:18:28.692Z,27.28
2022-08-26T07:19:01.175Z,27.10
2022-08-26T07:19:44.079Z,27.45
2022-08-26T07:20:15.827Z,27.20
2022-08-26T07:20:48.919Z,27.22
2022-08-26T07:21:22.454Z,26.82
2022-08-26T07:21:55.787Z,26.34
2022-08-26T07:22:27.592Z,26.45
2022-08-26T07:22:59.423Z,26.30
2022-08-26T07:23:32.334Z,26.46
2022-08-26T07:24:04.352Z,26.83
2022-08-26T07:24:40.217Z,26.90
2022-08-26T07:25:14.122Z,26.45
2022-08-26T07:25:46.889Z,26.33
2022-08-26T07:26:23.053Z,25.19
2022-08-26T07:27:05.625Z,25.85
2022-08-26T07:27:38.543Z,26.10
2022-08-26T07:28:10.322Z,26.44
2022-08-26T07:28:44.441Z,26.07
2022-08-26T07:29:16.922Z,25.89
2022-08-26T07:29:48.922Z,25.78
2022-08-26T07:30:20.680Z,25.84
2022-08-26T07:30:52.514Z,25.65
2022-08-26T07:31:27.330Z,25.60
2022-08-26T07:31:59.726Z,25.32
2022-08-26T07:32:32.549Z,25.44
2022-08-26T07:33:05.104Z,25.43
2022-08-26T07:33:38.730Z,25.09
2022-08-26T07:34:13.676Z,25.38
2022-08-26T07:34:45.897Z,24.80
2022-08-26T07:35:17.991Z,24.61
2022-08-26T07:35:49.739Z,24.85
2022-08-26T07:36:24.457Z,24.75
2022-08-26T07:36:56.908Z,24.36
2022-08-26T07:37:29.081Z,24.30
2022-08-26T07:38:08.906Z,24.32
2022-08-26T07:38:43.022Z,24.21
2022-08-26T07:40:56.655Z,23.92
2022-08-26T07:41:47.103Z,24.05
2022-08-26T07:42:27.453Z,24.02
2022-08-26T07:43:10.354Z,24.13
2022-08-26T07:43:44.991Z,24.19
2022-08-26T07:44:19.526Z,24.42
2022-08-26T07:45:04.932Z,24.34
2022-08-26T07:46:15.873Z,24.33
2022-08-26T07:46:52.368Z,24.06
2022-08-26T07:47:26.375Z,24.12
2022-08-26T07:48:00.987Z,24.13
2022-08-26T07:48:38.568Z,24.22
2022-08-26T07:49:12.333Z,24.34
2022-08-26T07:49:44.905Z,24.16
2022-08-26T07:50:17.313Z,24.34
2022-08-26T07:50:50.571Z,24.22
2022-08-26T07:51:22.933Z,24.29
2022-08-26T07:51:57.961Z,24.42
2022-08-26T07:52:30.628Z,24.50
2022-08-26T07:53:03.488Z,24.68
2022-08-26T07:53:36.963Z,24.36
2022-08-26T07:54:09.109Z,24.63
2022-08-26T07:54:41.242Z,24.74
2022-08-26T07:55:13.109Z,24.46
2022-08-26T07:55:45.151Z,24.57
2022-08-26T07:56:17.540Z,24.69
2022-08-26T07:56:49.900Z,24.73
2022-08-26T07:58:00.002Z,24.77
2022-08-26T07:58:32.041Z,24.89
2022-08-26T07:59:04.267Z,25.26
2022-08-26T07:59:46.008Z,25.47
2022-08-26T08:00:23.620Z,26.07
2022-08-26T08:00:56.078Z,26.45
2022-08-26T08:01:29.684Z,26.72
2022-08-26T08:02:02.787Z,26.99
2022-08-26T08:02:35.321Z,27.66
2022-08-26T08:03:07.473Z,27.71
2022-08-26T08:03:40.524Z,28.04
2022-08-26T08:04:17.441Z,28.14
2022-08-26T08:04:49.947Z,28.88
2022-08-26T08:05:22.796Z,29.23
2022-08-26T08:06:02.347Z,28.88
2022-08-26T08:06:34.741Z,29.01
2022-08-26T08:07:10.578Z,28.89
2022-08-26T08:07:47.350Z,28.62
2022-08-26T08:08:26.910Z,28.89
2022-08-26T08:09:01.080Z,28.62
2022-08-26T08:09:32.969Z,28.58
2022-08-26T08:10:09.744Z,29.10
2022-08-26T08:10:44.856Z,29.08
2022-08-26T08:11:21.575Z,29.38
2022-08-26T08:11:53.531Z,29.86
2022-08-26T08:12:25.940Z,29.65
2022-08-26T08:12:58.821Z,29.42
2022-08-26T08:13:30.841Z,28.83
2022-08-26T08:14:04.612Z,29.04
2022-08-26T08:14:40.548Z,29.40
2022-08-26T08:15:14.039Z,29.18
2022-08-26T08:15:46.051Z,28.98
2022-08-26T08:16:18.486Z,28.29
2022-08-26T08:16:51.113Z,27.75
2022-08-26T08:17:26.933Z,27.94
2022-08-26T08:18:15.179Z,27.97
2022-08-26T08:18:47.904Z,28.35
2022-08-26T08:19:20.345Z,28.70
2022-08-26T08:19:53.737Z,28.97
2022-08-26T08:20:27.415Z,29.08
2022-08-26T08:21:21.225Z,29.08
2022-08-26T08:21:54.190Z,28.83
2022-08-26T08:22:26.813Z,28.68
2022-08-26T08:23:00.592Z,27.89
2022-08-26T08:23:32.969Z,27.93
2022-08-26T08:24:05.137Z,27.74
2022-08-26T08:24:38.181Z,28.36
2022-08-26T08:25:12.577Z,29.05
2022-08-26T08:25:45.182Z,28.53
2022-08-26T08:26:17.435Z,28.32
2022-08-26T08:26:50.471Z,27.98
2022-08-26T08:27:24.112Z,28.29
2022-08-26T08:27:56.909Z,27.63
2022-08-26T08:28:29.204Z,27.88
2022-08-26T08:29:01.323Z,27.75
2022-08-26T08:29:33.661Z,27.80
2022-08-26T08:30:08.146Z,27.37
2022-08-26T08:30:41.099Z,27.58
2022-08-26T08:31:52.472Z,26.99
2022-08-26T08:32:20.976Z,27.52
2022-08-26T08:32:53.183Z,27.94
2022-08-26T08:33:26.102Z,28.02
2022-08-26T08:33:58.219Z,27.74
2022-08-26T08:34:31.068Z,27.77
2022-08-26T08:35:10.835Z,27.87
2022-08-26T08:35:44.274Z,27.79
2022-08-26T08:36:18.607Z,27.54
2022-08-26T08:36:53.281Z,27.46
2022-08-26T08:37:25.976Z,27.30
2022-08-26T08:37:57.888Z,27.12
2022-08-26T08:38:29.792Z,27.35
2022-08-26T08:39:01.647Z,27.85
2022-08-26T08:39:33.554Z,28.01
2022-08-26T08:40:07.910Z,28.11
2022-08-26T08:40:42.279Z,28.21
2022-08-26T08:41:20.859Z,27.90
2022-08-26T08:42:07.851Z,27.61
2022-08-26T08:43:06.097Z,27.51
2022-08-26T08:43:42.191Z,27.47
2022-08-26T08:44:21.006Z,27.67
2022-08-26T08:44:58.942Z,27.94
2022-08-26T08:45:38.338Z,27.83
2022-08-26T08:46:14.184Z,27.78
2022-08-26T08:46:51.810Z,27.81
2022-08-26T08:47:32.652Z,27.41
2022-08-26T08:48:33.461Z,27.20
2022-08-26T08:49:05.490Z,27.15
2022-08-26T08:49:37.521Z,26.96
2022-08-26T08:50:17.307Z,27.25
2022-08-26T08:50:52.208Z,27.32
2022-08-26T08:51:39.829Z,27.28
2022-08-26T08:52:39.205Z,27.47
2022-08-26T08:53:31.698Z,27.54
2022-08-26T08:54:05.319Z,27.56
2022-08-26T08:54:37.445Z,27.65
2022-08-26T08:55:11.851Z,27.86
2022-08-26T08:56:03.747Z,27.89
2022-08-26T08:56:45.870Z,27.73
2022-08-26T08:57:31.704Z,27.34
2022-08-26T08:58:08.234Z,27.25
2022-08-26T08:58:57.323Z,27.60
2022-08-26T08:59:35.317Z,27.40
2022-08-26T09:00:17.166Z,27.78
2022-08-26T09:01:00.187Z,28.16
2022-08-26T09:01:59.002Z,27.64
2022-08-26T09:02:40.563Z,27.20
2022-08-26T09:03:35.967Z,27.26